createdAt,value
2018-03-31T00:01:20.237Z,60.07
2018-03-31T00:07:23.900Z,59.35
2018-03-31T00:13:28.185Z,61.30
2018-03-31T00:19:32.077Z,61.98
2018-03-31T00:25:35.735Z,61.99
2018-03-31T00:31:39.494Z,62.53
2018-03-31T00:37:43.199Z,63.97
2018-03-31T00:43:46.917Z,64.09
2018-03-31T00:49:51.501Z,64.27
2018-03-31T00:55:55.530Z,64.55
2018-03-31T01:01:59.543Z,63.65
2018-03-31T01:08:03.496Z,62.40
2018-03-31T01:14:07.207Z,62.92
2018-03-31T01:20:10.853Z,62.93
2018-03-31T01:26:14.491Z,63.76
2018-03-31T01:32:18.937Z,63.49
2018-03-31T01:38:23.581Z,63.96
2018-03-31T01:44:27.381Z,63.94
2018-03-31T01:50:31.036Z,65.59
2018-03-31T01:56:34.770Z,66.86
2018-03-31T02:02:38.418Z,69.03
2018-03-31T02:08:42.065Z,70.64
2018-03-31T02:14:45.719Z,71.66
2018-03-31T02:20:49.507Z,71.96
2018-03-31T02:26:54.422Z,73.07
2018-03-31T02:32:58.509Z,74.57
2018-03-31T02:39:02.562Z,74.90
2018-03-31T02:45:06.221Z,75.35
2018-03-31T02:51:09.924Z,76.27
2018-03-31T02:57:13.750Z,76.94
2018-03-31T03:03:17.562Z,77.51
2018-03-31T03:09:21.372Z,77.54
2018-03-31T03:15:25.291Z,77.78
2018-03-31T03:21:29.386Z,77.72
2018-03-31T03:27:32.718Z,78.56
2018-03-31T03:33:36.805Z,79.33
2018-03-31T03:39:40.848Z,79.80
2018-03-31T03:45:45.333Z,79.68
2018-03-31T03:51:49.488Z,80.31
2018-03-31T03:57:52.836Z,80.38
2018-03-31T04:03:57.050Z,80.07
2018-03-31T04:10:00.508Z,80.42
2018-03-31T04:16:04.091Z,79.99
2018-03-31T04:22:07.399Z,80.57
2018-03-31T04:28:10.821Z,80.89
2018-03-31T04:34:14.239Z,80.92
2018-03-31T04:40:17.736Z,81.41
2018-03-31T04:46:21.798Z,81.31
2018-03-31T04:52:25.771Z,81.62
2018-03-31T04:58:30.064Z,81.83
2018-03-31T05:04:33.389Z,81.54
2018-03-31T05:10:37.411Z,81.63
2018-03-31T05:16:40.732Z,81.67
2018-03-31T05:22:44.137Z,82.46
2018-03-31T05:28:48.331Z,82.39
2018-03-31T05:34:51.660Z,82.26
2018-03-31T05:40:55.329Z,82.28
2018-03-31T05:46:58.713Z,82.76
2018-03-31T05:53:01.998Z,82.75
2018-03-31T05:59:05.422Z,82.83
2018-03-31T06:05:08.738Z,82.50
2018-03-31T06:11:12.781Z,82.04
2018-03-31T06:17:16.070Z,80.84
2018-03-31T06:23:19.360Z,80.67
2018-03-31T06:29:22.723Z,79.75
2018-03-31T06:35:27.107Z,79.83
2018-03-31T06:41:30.547Z,80.29
2018-03-31T06:47:33.909Z,80.14
2018-03-31T06:53:37.207Z,80.50
2018-03-31T06:59:40.523Z,80.08
2018-03-31T07:05:43.874Z,79.93
2018-03-31T07:11:47.155Z,80.48
2018-03-31T07:17:51.201Z,80.65
2018-03-31T07:23:55.061Z,80.17
2018-03-31T07:29:59.297Z,80.39
2018-03-31T07:36:02.718Z,81.01
2018-03-31T07:42:06.040Z,81.38
2018-03-31T07:48:09.367Z,81.16
2018-03-31T07:54:12.798Z,81.63
2018-03-31T08:00:16.089Z,80.56
2018-03-31T08:06:20.155Z,80.62
2018-03-31T08:12:24.201Z,81.49
2018-03-31T08:18:27.676Z,80.67
2018-03-31T08:24:31.823Z,81.34
2018-03-31T08:30:35.318Z,81.49
2018-03-31T08:36:38.577Z,82.31
2018-03-31T08:42:42.029Z,81.12
2018-03-31T08:48:45.353Z,82.06
2018-03-31T08:54:48.675Z,81.57
2018-03-31T09:00:51.956Z,81.06
2018-03-31T09:06:56.150Z,81.75
2018-03-31T09:13:00.317Z,81.83
2018-03-31T09:19:04.350Z,81.07
2018-03-31T09:25:08.467Z,81.59
2018-03-31T09:31:11.765Z,80.43
2018-03-31T09:37:15.429Z,79.66
2018-03-31T09:43:19.580Z,79.23
2018-03-31T09:49:22.899Z,79.33
2018-03-31T09:55:26.834Z,78.52
2018-03-31T10:01:30.348Z,79.34
2018-03-31T10:07:33.735Z,78.50
2018-03-31T10:13:37.822Z,78.95
2018-03-31T10:19:41.109Z,77.65
2018-03-31T10:25:44.477Z,76.18
2018-03-31T10:31:47.840Z,77.01
2018-03-31T10:37:51.942Z,77.83
2018-03-31T10:43:56.309Z,78.55
2018-03-31T10:49:59.717Z,78.15
2018-03-31T10:56:03.099Z,78.55
2018-03-31T11:02:06.567Z,77.42
2018-03-31T11:08:09.840Z,77.07
2018-03-31T11:14:13.201Z,78.21
2018-03-31T11:20:16.650Z,79.43
2018-03-31T11:26:20.059Z,79.04
2018-03-31T11:32:23.475Z,79.29
2018-03-31T11:38:28.102Z,79.62
2018-03-31T11:44:31.420Z,79.51
2018-03-31T11:50:34.807Z,79.17
2018-03-31T11:56:38.261Z,79.95
2018-03-31T12:02:41.737Z,80.04
2018-03-31T12:08:45.023Z,78.92
2018-03-31T12:14:48.336Z,78.97
2018-03-31T12:20:51.778Z,79.60
2018-03-31T12:26:55.529Z,79.85
2018-03-31T12:32:59.887Z,79.01
2018-03-31T12:39:03.205Z,80.52
2018-03-31T12:45:06.785Z,80.51
2018-03-31T12:51:10.133Z,80.01
2018-03-31T12:57:14.432Z,80.09
2018-03-31T13:03:17.719Z,80.36
2018-03-31T13:09:21.251Z,79.88
2018-03-31T13:15:24.681Z,80.03
2018-03-31T13:21:28.378Z,79.80
2018-03-31T13:27:31.688Z,79.27
2018-03-31T13:33:35.091Z,79.70
2018-03-31T13:39:38.708Z,79.66
2018-03-31T13:45:42.149Z,79.39
2018-03-31T13:51:45.483Z,80.03
2018-03-31T13:57:48.999Z,80.50
2018-03-31T14:03:52.513Z,80.32
2018-03-31T14:09:55.854Z,80.57
2018-03-31T14:15:59.214Z,80.68
2018-03-31T14:22:02.679Z,81.25
2018-03-31T14:28:06.121Z,81.89
2018-03-31T14:34:14.244Z,81.58
2018-03-31T14:40:17.607Z,82.16
2018-03-31T14:46:20.953Z,81.26
2018-03-31T14:52:24.515Z,82.38
2018-03-31T14:58:28.856Z,81.93
2018-03-31T15:04:32.180Z,82.54
2018-03-31T15:10:35.511Z,82.19
2018-03-31T15:16:38.827Z,82.74
2018-03-31T15:22:42.213Z,82.46
2018-03-31T15:28:45.539Z,82.45
2018-03-31T15:34:49.017Z,83.50
2018-03-31T15:40:52.329Z,82.66
2018-03-31T15:46:56.729Z,82.47
2018-03-31T15:53:00.862Z,82.23
2018-03-31T15:59:04.147Z,82.43
2018-03-31T16:05:08.247Z,82.70
2018-03-31T16:11:11.548Z,82.53
2018-03-31T16:17:14.931Z,82.72
2018-03-31T16:23:18.325Z,83.15
2018-03-31T16:29:21.703Z,83.18
2018-03-31T16:35:25.311Z,83.32
2018-03-31T16:41:29.684Z,83.60
2018-03-31T16:47:32.980Z,83.86
2018-03-31T16:53:36.305Z,84.18
2018-03-31T16:59:39.776Z,84.14
2018-03-31T17:05:43.124Z,84.36
2018-03-31T17:11:46.609Z,84.09
2018-03-31T17:17:49.986Z,83.62
2018-03-31T17:23:53.327Z,83.26
2018-03-31T17:29:57.192Z,83.41
2018-03-31T17:36:01.074Z,82.61
2018-03-31T17:42:04.417Z,83.32
2018-03-31T17:48:07.771Z,83.83
2018-03-31T17:54:11.146Z,84.10
2018-03-31T18:00:14.558Z,84.52
2018-03-31T18:06:18.085Z,84.44
2018-03-31T18:12:21.485Z,84.10
2018-03-31T18:18:24.869Z,84.15
2018-03-31T18:24:28.591Z,84.01
2018-03-31T18:30:32.860Z,83.43
2018-03-31T18:36:36.165Z,82.97
2018-03-31T18:42:40.245Z,83.47
2018-03-31T18:48:44.988Z,83.15
2018-03-31T18:54:48.326Z,83.77
2018-03-31T19:00:51.730Z,83.68
2018-03-31T19:06:55.082Z,83.60
2018-03-31T19:12:59.053Z,83.37
2018-03-31T19:19:03.922Z,82.99
2018-03-31T19:25:12.723Z,83.52
2018-03-31T19:31:16.115Z,83.78
2018-03-31T19:37:19.458Z,83.02
2018-03-31T19:43:22.793Z,83.42
2018-03-31T19:49:27.746Z,83.59
2018-03-31T19:55:32.260Z,83.85
2018-03-31T20:01:35.557Z,82.85
2018-03-31T20:07:39.026Z,82.06
2018-03-31T20:13:42.448Z,82.02
2018-03-31T20:19:45.929Z,81.51
2018-03-31T20:25:50.046Z,81.73
2018-03-31T20:31:53.414Z,81.95
2018-03-31T20:37:57.057Z,81.25
2018-03-31T20:44:00.592Z,81.43
2018-03-31T20:50:03.948Z,81.14
2018-03-31T20:56:07.299Z,80.68
2018-03-31T21:02:10.691Z,79.59
2018-03-31T21:08:14.120Z,79.23
2018-03-31T21:14:17.517Z,79.63
2018-03-31T21:20:20.938Z,79.55
2018-03-31T21:26:24.381Z,79.72
2018-03-31T21:32:28.164Z,80.36
2018-03-31T21:38:31.739Z,80.06
2018-03-31T21:44:35.323Z,78.77
2018-03-31T21:50:38.630Z,79.37
2018-03-31T21:56:41.979Z,79.82
2018-03-31T22:02:45.275Z,80.03
2018-03-31T22:08:48.617Z,80.68
2018-03-31T22:14:57.339Z,80.49
2018-03-31T22:21:00.623Z,80.66
2018-03-31T22:27:03.976Z,80.52
2018-03-31T22:33:07.307Z,80.06
2018-03-31T22:39:10.803Z,80.26
2018-03-31T22:45:14.133Z,79.18
2018-03-31T22:51:18.197Z,79.19
2018-03-31T22:57:21.575Z,79.45
2018-03-31T23:03:25.073Z,79.49
2018-03-31T23:09:28.888Z,79.69
2018-03-31T23:15:33.436Z,80.24
2018-03-31T23:21:37.084Z,80.47
2018-03-31T23:27:41.556Z,80.64
2018-03-31T23:33:45.303Z,80.51
2018-03-31T23:39:48.947Z,80.98
2018-03-31T23:45:52.382Z,80.69
2018-03-31T23:51:56.281Z,79.93
2018-03-31T23:58:00.686Z,80.91
